11/13 16:00 更新

2,000ftに雲が少し
5,000ftに雲が多い
8,000ftに雲が多い

地上風: 000°0kt

上空風
13,000ft: 未計測
10,000ft: 270°15kt
 7,000ft: 270°6kt
 3,000ft: 160°12kt

地上: 15℃
上空: -7.6℃

日没: 16:36

実況天気図


予想天気図


RJTJ 130700Z 00000KT 9999 FEW020 BKN050 BKN080 15/10 Q1012 RMK 1CU020 5SC050 6AC080 A2991=

GPV気象予報
気象庁
日本気象協会

玉淀ダム放流量(1,000m3/sを超えた7時間後にDZ冠水)
太郎衛門橋テレメータ水位(11mでDZ冠水)

skydive.jp